Terminal Aerodrome Forecast
Issued by NWS Sioux Falls, SD

Home | Current Version | Previous Version | Graphics & Text | Print | Product List | Glossary On
Versions: 1 2 3 4 5 6 7 8 9 10 11 12 13 14
000
FTUS43 KFSD 141700
TAFSUX
TAF
KSUX 141720Z 1418/1518 34015G23KT P6SM BKN070
     FM142100 33012G18KT P6SM BKN060
     FM150000 35008KT P6SM SCT060
     FM150600 VRB03KT P6SM SKC
     FM151500 17011KT P6SM SCT080=

USA.gov is the U.S. government's official web portal to all federal, state and local government web resources and services.